Time;durP1;ratioP1;P1;durP2;ratioP2;P2;SDS_P1;SDS_P2;PMS_P1;PMS_P2;Temp;Humidity;BMP_temperature;BMP_pressure;BME280_temperature;BME280_humidity;BME280_pressure;Samples;Min_cycle;Max_cycle;Signal;HPM_P1;HPM_P2
2021/12/22 00:01:29;;;;;;;;;;;20.70;40.80;;;;;;5034204;28;19933;-58
2021/12/22 00:03:56;;;;;;;;;;;20.70;40.80;;;;;;5018358;28;19983;-55
2021/12/22 00:06:25;;;;;;;;;;;20.70;40.70;;;;;;5022780;28;19968;-59
2021/12/22 00:08:51;;;;;;;;;;;20.70;40.70;;;;;;5042442;28;19925;-57
2021/12/22 00:11:18;;;;;;;;;;;20.70;40.80;;;;;;5049296;28;19925;-60
2021/12/22 00:13:47;;;;;;;;;;;20.70;40.70;;;;;;5027678;28;19925;-59
2021/12/22 00:16:13;;;;;;;;;;;20.70;40.80;;;;;;5029737;28;20020;-57
2021/12/22 00:18:40;;;;;;;;;;;20.70;40.70;;;;;;5046312;28;19931;-61
2021/12/22 00:21:07;;;;;;;;;;;20.70;40.80;;;;;;5028389;28;20396;-58
2021/12/22 00:23:33;;;;;;;;;;;20.70;40.80;;;;;;5045351;28;20007;-57
2021/12/22 00:26:00;;;;;;;;;;;20.70;40.70;;;;;;5039714;28;19932;-55
2021/12/22 00:28:27;;;;;;;;;;;20.70;40.80;;;;;;5020605;28;20446;-56
2021/12/22 00:30:56;;;;;;;;;;;20.70;40.80;;;;;;5025219;28;19953;-57
2021/12/22 00:33:22;;;;;;;;;;;20.70;40.70;;;;;;5036623;28;19932;-59
2021/12/22 00:35:49;;;;;;;;;;;20.70;40.80;;;;;;5022486;28;20341;-60
2021/12/22 00:38:16;;;;;;;;;;;20.70;40.80;;;;;;5024493;28;20056;-56
2021/12/22 00:40:43;;;;;;;;;;;20.70;40.80;;;;;;5042639;28;19949;-57
2021/12/22 00:43:10;;;;;;;;;;;20.70;40.80;;;;;;5029927;28;20246;-62
2021/12/22 00:45:37;;;;;;;;;;;20.70;40.70;;;;;;5024874;28;19991;-56
2021/12/22 00:48:05;;;;;;;;;;;20.70;40.80;;;;;;5027280;28;19925;-59
2021/12/22 00:50:32;;;;;;;;;;;20.70;40.80;;;;;;5018790;28;19953;-57
2021/12/22 00:52:59;;;;;;;;;;;20.70;40.80;;;;;;5027882;28;19925;-60
2021/12/22 00:55:26;;;;;;;;;;;20.70;40.80;;;;;;5046292;28;20007;-59
2021/12/22 00:57:52;;;;;;;;;;;20.70;40.80;;;;;;5021077;28;19926;-60
2021/12/22 01:00:19;;;;;;;;;;;20.70;40.80;;;;;;5025366;28;19983;-59
2021/12/22 01:02:46;;;;;;;;;;;20.70;40.80;;;;;;5027356;28;19929;-64
2021/12/22 01:05:15;;;;;;;;;;;20.70;40.80;;;;;;5032749;28;19951;-61
2021/12/22 01:07:42;;;;;;;;;;;20.70;40.80;;;;;;5022699;28;19925;-59
2021/12/22 01:10:08;;;;;;;;;;;20.70;40.80;;;;;;5045112;28;20024;-60
2021/12/22 01:12:35;;;;;;;;;;;20.70;40.80;;;;;;5020634;28;19979;-54
2021/12/22 01:15:02;;;;;;;;;;;20.70;40.80;;;;;;5036682;28;19968;-60
2021/12/22 01:17:36;;;;;;;;;;;20.60;40.70;;;;;;5042000;28;19934;-57
2021/12/22 01:20:08;;;;;;;;;;;20.70;40.80;;;;;;5040609;28;19957;-56
2021/12/22 01:22:47;;;;;;;;;;;20.70;40.80;;;;;;5026667;28;19930;-59
2021/12/22 01:25:16;;;;;;;;;;;20.70;40.80;;;;;;5035907;28;19926;-62
2021/12/22 01:27:43;;;;;;;;;;;20.70;40.80;;;;;;5025031;28;20303;-62
2021/12/22 01:30:11;;;;;;;;;;;20.70;40.80;;;;;;5019469;28;19926;-66
2021/12/22 01:32:38;;;;;;;;;;;20.70;40.80;;;;;;5023701;28;19968;-60
2021/12/22 01:35:06;;;;;;;;;;;20.60;40.80;;;;;;5021801;28;20370;-58
2021/12/22 01:37:32;;;;;;;;;;;20.70;40.80;;;;;;5038834;28;19929;-61
2021/12/22 01:40:01;;;;;;;;;;;20.70;40.90;;;;;;5019879;28;19972;-59
2021/12/22 01:42:28;;;;;;;;;;;20.60;40.80;;;;;;5022733;28;19980;-54
2021/12/22 01:45:14;;;;;;;;;;;20.60;40.80;;;;;;5036510;28;19983;-58
2021/12/22 01:50:29;;;;;;;;;;;20.60;40.70;;;;;;5022943;28;20304;-59
2021/12/22 01:52:56;;;;;;;;;;;20.60;40.80;;;;;;5040980;28;19929;-59
2021/12/22 01:55:32;;;;;;;;;;;20.60;40.80;;;;;;5019349;28;19926;-61
2021/12/22 01:57:59;;;;;;;;;;;20.60;40.80;;;;;;5020411;28;19972;-64
2021/12/22 02:00:25;;;;;;;;;;;20.60;40.80;;;;;;5016952;28;19932;-61
2021/12/22 02:02:52;;;;;;;;;;;20.60;40.80;;;;;;5039343;28;19976;-59
2021/12/22 02:05:19;;;;;;;;;;;20.60;40.80;;;;;;5040380;28;19925;-60
2021/12/22 02:07:48;;;;;;;;;;;20.60;40.80;;;;;;5040382;28;19984;-59
2021/12/22 02:10:32;;;;;;;;;;;20.60;40.80;;;;;;5020506;28;19929;-58
2021/12/22 02:13:01;;;;;;;;;;;20.60;40.80;;;;;;5025377;28;19932;-60
2021/12/22 02:15:33;;;;;;;;;;;20.60;40.80;;;;;;5021110;28;19921;-60
2021/12/22 02:18:02;;;;;;;;;;;20.60;40.80;;;;;;5029400;28;19975;-61
2021/12/22 02:20:30;;;;;;;;;;;20.60;40.80;;;;;;5026131;28;19933;-60
2021/12/22 02:22:57;;;;;;;;;;;20.60;40.80;;;;;;5037971;28;19952;-61
2021/12/22 02:25:32;;;;;;;;;;;20.60;40.80;;;;;;5020493;28;20398;-60
2021/12/22 02:28:01;;;;;;;;;;;20.60;40.80;;;;;;5019770;28;20027;-60
2021/12/22 02:30:29;;;;;;;;;;;20.60;40.80;;;;;;5032710;28;19926;-59
2021/12/22 02:35:44;;;;;;;;;;;20.60;40.80;;;;;;5016881;28;19965;-63
2021/12/22 02:38:15;;;;;;;;;;;20.60;40.80;;;;;;5037603;28;20011;-60
2021/12/22 02:40:42;;;;;;;;;;;20.60;40.80;;;;;;5031031;28;19952;-58
2021/12/22 02:43:09;;;;;;;;;;;20.60;40.80;;;;;;5029100;28;20015;-58
2021/12/22 02:45:36;;;;;;;;;;;20.60;40.80;;;;;;5047478;28;19952;-61
2021/12/22 02:48:04;;;;;;;;;;;20.60;40.80;;;;;;5029475;28;19925;-58
2021/12/22 02:50:32;;;;;;;;;;;20.60;40.80;;;;;;5030672;28;19998;-61
2021/12/22 02:53:05;;;;;;;;;;;20.60;40.80;;;;;;5017159;28;19925;-63
2021/12/22 02:55:43;;;;;;;;;;;20.60;40.80;;;;;;5047045;28;19925;-57
2021/12/22 02:58:13;;;;;;;;;;;20.60;40.80;;;;;;5017859;28;19925;-60
2021/12/22 03:00:50;;;;;;;;;;;20.60;40.90;;;;;;5046946;28;20018;-59
2021/12/22 03:03:30;;;;;;;;;;;20.60;40.90;;;;;;5033843;28;19949;-59
2021/12/22 03:05:58;;;;;;;;;;;20.60;40.80;;;;;;5030132;28;19933;-59
2021/12/22 03:08:26;;;;;;;;;;;20.60;40.80;;;;;;5015215;28;19925;-61
2021/12/22 03:10:55;;;;;;;;;;;20.60;40.80;;;;;;5025987;28;19925;-62
2021/12/22 03:13:22;;;;;;;;;;;20.60;40.80;;;;;;5011366;28;19930;-57
2021/12/22 03:15:48;;;;;;;;;;;20.60;40.90;;;;;;5046251;28;20456;-58
2021/12/22 03:18:15;;;;;;;;;;;20.60;40.90;;;;;;5030079;28;20354;-60
2021/12/22 03:20:44;;;;;;;;;;;20.60;40.80;;;;;;5010501;28;19926;-60
2021/12/22 03:23:11;;;;;;;;;;;20.60;40.90;;;;;;5036388;28;20402;-60
2021/12/22 03:25:39;;;;;;;;;;;20.60;40.90;;;;;;5011721;28;19980;-59
2021/12/22 03:28:06;;;;;;;;;;;20.60;40.90;;;;;;5010307;28;19976;-57
2021/12/22 03:30:33;;;;;;;;;;;20.60;40.80;;;;;;5012067;28;20021;-59
2021/12/22 03:32:59;;;;;;;;;;;20.60;40.90;;;;;;5017553;28;20292;-60
2021/12/22 03:35:26;;;;;;;;;;;20.60;41.40;;;;;;5031171;28;19932;-59
2021/12/22 03:37:54;;;;;;;;;;;20.60;40.90;;;;;;5032688;28;19925;-59
2021/12/22 03:40:21;;;;;;;;;;;20.60;40.90;;;;;;5018130;28;19961;-57
2021/12/22 03:42:49;;;;;;;;;;;20.60;40.80;;;;;;5014265;28;19971;-60
2021/12/22 03:45:16;;;;;;;;;;;20.60;40.80;;;;;;5014570;28;19929;-59
2021/12/22 03:47:44;;;;;;;;;;;20.60;40.80;;;;;;5014273;28;19925;-56
2021/12/22 03:50:11;;;;;;;;;;;20.60;40.90;;;;;;5029916;28;19960;-56
2021/12/22 03:52:38;;;;;;;;;;;20.50;40.80;;;;;;5046034;28;19929;-58
2021/12/22 03:55:05;;;;;;;;;;;20.60;40.80;;;;;;5043203;28;19971;-59
2021/12/22 03:57:32;;;;;;;;;;;20.60;40.90;;;;;;5050522;28;19982;-57
2021/12/22 04:00:00;;;;;;;;;;;20.60;40.90;;;;;;5028368;28;19925;-59
2021/12/22 04:02:28;;;;;;;;;;;20.60;40.80;;;;;;5033916;28;19929;-57
2021/12/22 04:04:55;;;;;;;;;;;20.60;40.80;;;;;;5033351;28;19951;-61
2021/12/22 04:07:22;;;;;;;;;;;20.60;40.90;;;;;;5018186;28;19929;-56
2021/12/22 04:09:48;;;;;;;;;;;20.60;40.90;;;;;;5043898;28;19948;-62
2021/12/22 04:12:15;;;;;;;;;;;20.60;40.80;;;;;;5033260;28;19925;-60
2021/12/22 04:14:42;;;;;;;;;;;20.60;40.90;;;;;;5024395;28;19931;-61
2021/12/22 04:17:10;;;;;;;;;;;20.60;40.90;;;;;;5047998;28;20250;-62
2021/12/22 04:19:36;;;;;;;;;;;20.60;40.90;;;;;;5025614;28;20291;-58
2021/12/22 04:22:04;;;;;;;;;;;20.60;40.90;;;;;;5038059;28;19925;-57
2021/12/22 04:24:31;;;;;;;;;;;20.60;40.80;;;;;;5038639;28;20271;-62
2021/12/22 04:26:58;;;;;;;;;;;20.60;40.90;;;;;;5013309;28;19932;-60
2021/12/22 04:29:24;;;;;;;;;;;20.60;40.90;;;;;;5036197;28;20007;-54
2021/12/22 04:31:51;;;;;;;;;;;20.60;40.90;;;;;;5032647;28;19929;-58
2021/12/22 04:34:19;;;;;;;;;;;20.60;40.90;;;;;;5049490;28;19959;-56
2021/12/22 04:36:47;;;;;;;;;;;20.60;40.90;;;;;;5032289;28;19964;-59
2021/12/22 04:39:13;;;;;;;;;;;20.60;40.90;;;;;;5026276;28;20384;-59
2021/12/22 04:41:40;;;;;;;;;;;20.60;40.90;;;;;;5029109;28;20325;-60
2021/12/22 04:44:07;;;;;;;;;;;20.60;41.40;;;;;;5035927;28;19936;-58
2021/12/22 04:46:33;;;;;;;;;;;20.60;40.90;;;;;;5029178;28;19925;-56
2021/12/22 04:49:00;;;;;;;;;;;20.60;40.90;;;;;;5029835;28;20028;-56
2021/12/22 04:51:30;;;;;;;;;;;20.50;40.80;;;;;;5032562;28;20015;-58
2021/12/22 04:54:03;;;;;;;;;;;20.60;40.90;;;;;;5022983;28;19926;-62
2021/12/22 04:56:30;;;;;;;;;;;20.60;40.90;;;;;;5048039;28;19991;-63
2021/12/22 04:58:57;;;;;;;;;;;20.60;40.90;;;;;;5031577;28;20011;-59
2021/12/22 05:01:24;;;;;;;;;;;20.60;40.90;;;;;;5013105;28;19925;-61
2021/12/22 05:03:50;;;;;;;;;;;20.60;40.90;;;;;;5028984;28;19953;-58
2021/12/22 05:06:17;;;;;;;;;;;20.60;40.90;;;;;;5032395;28;20337;-58
2021/12/22 05:08:45;;;;;;;;;;;20.60;40.90;;;;;;5049117;28;20454;-62
2021/12/22 05:11:12;;;;;;;;;;;20.60;40.90;;;;;;5048818;28;20267;-59
2021/12/22 05:13:38;;;;;;;;;;;20.60;40.90;;;;;;5049066;28;19936;-60
2021/12/22 05:16:06;;;;;;;;;;;20.60;40.90;;;;;;5019259;28;20290;-59
2021/12/22 05:18:51;;;;;;;;;;;20.60;40.90;;;;;;5013571;28;19925;-61
2021/12/22 05:21:17;;;;;;;;;;;20.60;40.90;;;;;;5028857;28;19952;-57
2021/12/22 05:23:45;;;;;;;;;;;20.60;40.90;;;;;;5012210;28;20390;-64
2021/12/22 05:26:12;;;;;;;;;;;20.60;40.90;;;;;;5045980;28;19926;-64
2021/12/22 05:28:39;;;;;;;;;;;20.60;40.90;;;;;;5015840;28;19996;-59
2021/12/22 05:31:05;;;;;;;;;;;20.60;40.90;;;;;;5029123;28;19967;-58
2021/12/22 05:33:32;;;;;;;;;;;20.60;40.90;;;;;;5048841;28;19925;-58
2021/12/22 05:35:59;;;;;;;;;;;20.60;40.90;;;;;;5043027;28;19929;-57
2021/12/22 05:38:26;;;;;;;;;;;20.60;40.90;;;;;;5022986;28;19932;-58
2021/12/22 05:40:54;;;;;;;;;;;20.50;40.80;;;;;;5041482;28;20020;-66
2021/12/22 05:43:21;;;;;;;;;;;20.60;40.90;;;;;;5032893;28;20345;-63
2021/12/22 05:45:47;;;;;;;;;;;20.60;40.90;;;;;;5041895;28;19936;-60
2021/12/22 05:48:14;;;;;;;;;;;20.60;40.90;;;;;;5033556;28;19983;-61
2021/12/22 05:50:43;;;;;;;;;;;20.50;40.80;;;;;;5040164;28;19933;-61
2021/12/22 05:53:10;;;;;;;;;;;20.60;40.90;;;;;;5031875;28;19929;-58
2021/12/22 05:55:37;;;;;;;;;;;20.60;40.90;;;;;;5023925;28;19925;-63
2021/12/22 05:58:05;;;;;;;;;;;20.50;40.80;;;;;;5047181;28;19925;-57
2021/12/22 06:00:32;;;;;;;;;;;20.50;40.80;;;;;;5037911;28;20015;-59
2021/12/22 06:02:58;;;;;;;;;;;20.50;40.70;;;;;;5011535;28;19932;-56
2021/12/22 06:05:25;;;;;;;;;;;20.50;40.80;;;;;;5011571;28;20437;-61
2021/12/22 06:07:52;;;;;;;;;;;20.50;40.80;;;;;;5033256;28;20438;-59
2021/12/22 06:10:18;;;;;;;;;;;20.60;40.90;;;;;;5024999;28;20293;-62
2021/12/22 06:12:45;;;;;;;;;;;20.60;40.80;;;;;;5027465;28;20012;-58
2021/12/22 06:15:15;;;;;;;;;;;20.50;40.80;;;;;;5034885;28;19932;-61
2021/12/22 06:17:42;;;;;;;;;;;20.50;40.80;;;;;;5047337;28;19931;-58
2021/12/22 06:20:10;;;;;;;;;;;20.50;40.80;;;;;;5036724;28;19936;-58
2021/12/22 06:22:36;;;;;;;;;;;20.50;40.80;;;;;;5021376;28;19957;-58
2021/12/22 06:25:03;;;;;;;;;;;20.50;40.80;;;;;;5044523;28;19932;-59
2021/12/22 06:27:30;;;;;;;;;;;20.50;40.80;;;;;;5017608;28;19937;-61
2021/12/22 06:29:57;;;;;;;;;;;20.50;40.70;;;;;;5021872;28;19991;-57
2021/12/22 06:32:25;;;;;;;;;;;20.50;40.80;;;;;;5036197;28;19925;-57
2021/12/22 06:34:51;;;;;;;;;;;20.50;40.80;;;;;;5020467;28;19968;-57
2021/12/22 06:37:18;;;;;;;;;;;20.50;40.80;;;;;;5036012;28;19930;-59
2021/12/22 06:39:44;;;;;;;;;;;20.50;40.80;;;;;;5017550;28;19926;-57
2021/12/22 06:42:11;;;;;;;;;;;20.50;40.70;;;;;;5038209;28;19926;-59
2021/12/22 06:44:38;;;;;;;;;;;20.50;40.70;;;;;;5028464;28;19952;-59
2021/12/22 06:47:06;;;;;;;;;;;20.50;40.70;;;;;;5035206;28;20016;-61
2021/12/22 06:49:34;;;;;;;;;;;20.50;40.70;;;;;;5038316;28;20409;-63
2021/12/22 06:52:00;;;;;;;;;;;20.50;40.70;;;;;;5038217;28;20366;-59
2021/12/22 06:54:27;;;;;;;;;;;20.50;40.70;;;;;;5022065;28;19930;-59
2021/12/22 06:56:53;;;;;;;;;;;20.50;40.70;;;;;;5017081;28;19925;-58
2021/12/22 06:59:20;;;;;;;;;;;20.50;40.70;;;;;;5028179;28;19931;-51
2021/12/22 07:01:47;;;;;;;;;;;20.50;40.80;;;;;;5026986;28;20062;-58
2021/12/22 07:04:14;;;;;;;;;;;20.50;40.80;;;;;;5028403;28;19925;-57
2021/12/22 07:06:42;;;;;;;;;;;20.50;40.70;;;;;;5023461;28;19932;-60
2021/12/22 07:09:09;;;;;;;;;;;20.50;40.70;;;;;;5022352;28;19939;-58
2021/12/22 07:11:36;;;;;;;;;;;20.50;40.70;;;;;;5045974;28;20020;-58
2021/12/22 07:14:03;;;;;;;;;;;20.50;40.70;;;;;;5027997;28;19971;-57
2021/12/22 07:16:29;;;;;;;;;;;20.50;40.80;;;;;;5039034;28;20378;-59
2021/12/22 07:18:57;;;;;;;;;;;20.50;40.70;;;;;;5016477;28;19926;-60
2021/12/22 07:21:23;;;;;;;;;;;20.50;40.80;;;;;;5019970;28;20374;-60
2021/12/22 07:23:51;;;;;;;;;;;20.50;40.80;;;;;;5019677;28;20016;-58
2021/12/22 07:26:18;;;;;;;;;;;20.50;40.80;;;;;;5032468;28;20293;-57
2021/12/22 07:28:46;;;;;;;;;;;20.50;41.40;;;;;;5030036;28;19932;-59
2021/12/22 07:31:12;;;;;;;;;;;20.50;40.80;;;;;;5029294;28;19932;-61
2021/12/22 07:33:39;;;;;;;;;;;20.50;40.80;;;;;;5023696;28;19929;-58
2021/12/22 07:36:06;;;;;;;;;;;20.50;40.70;;;;;;5030062;28;19936;-61
2021/12/22 07:38:35;;;;;;;;;;;20.50;40.70;;;;;;5016797;28;20345;-59
2021/12/22 07:41:04;;;;;;;;;;;20.50;40.70;;;;;;5021175;28;20419;-56
2021/12/22 07:43:30;;;;;;;;;;;20.50;40.70;;;;;;5039507;28;20396;-57
2021/12/22 07:45:57;;;;;;;;;;;20.50;40.70;;;;;;5020414;28;19925;-60
2021/12/22 07:48:24;;;;;;;;;;;20.50;40.80;;;;;;5038594;28;20035;-57
2021/12/22 07:50:51;;;;;;;;;;;20.50;40.80;;;;;;5027659;28;20350;-55
2021/12/22 07:53:17;;;;;;;;;;;20.50;40.70;;;;;;5023449;28;19934;-60
2021/12/22 07:55:44;;;;;;;;;;;20.50;40.80;;;;;;5035692;28;19925;-55
2021/12/22 07:58:12;;;;;;;;;;;20.50;40.80;;;;;;5018148;28;20012;-57
2021/12/22 08:00:39;;;;;;;;;;;20.50;40.80;;;;;;5014605;28;19929;-59
2021/12/22 08:03:06;;;;;;;;;;;20.50;40.80;;;;;;5024039;28;19925;-59
2021/12/22 08:05:32;;;;;;;;;;;20.50;40.80;;;;;;5025749;28;19935;-57
2021/12/22 08:08:00;;;;;;;;;;;20.50;40.80;;;;;;5019651;28;20044;-57
2021/12/22 08:10:27;;;;;;;;;;;20.50;40.80;;;;;;5012794;28;19941;-67
2021/12/22 08:12:54;;;;;;;;;;;20.50;40.80;;;;;;5023858;28;20404;-57
2021/12/22 08:15:22;;;;;;;;;;;20.50;40.80;;;;;;5027163;28;19929;-61
2021/12/22 08:17:49;;;;;;;;;;;20.50;40.80;;;;;;5021072;28;20298;-63
2021/12/22 08:20:15;;;;;;;;;;;20.50;40.80;;;;;;5022485;28;19925;-59
2021/12/22 08:22:42;;;;;;;;;;;20.50;40.80;;;;;;5026450;28;20297;-57
2021/12/22 08:25:09;;;;;;;;;;;20.50;40.80;;;;;;5024954;28;20345;-58
2021/12/22 08:27:36;;;;;;;;;;;20.50;40.80;;;;;;5035210;28;19935;-59
2021/12/22 08:30:03;;;;;;;;;;;20.50;40.80;;;;;;5034517;28;19925;-58
2021/12/22 08:32:31;;;;;;;;;;;20.50;40.80;;;;;;5042011;28;19929;-58
2021/12/22 08:34:57;;;;;;;;;;;20.50;40.80;;;;;;5031456;28;19925;-55
2021/12/22 08:40:09;;;;;;;;;;;20.50;40.70;;;;;;5043966;28;19926;-60
2021/12/22 08:42:36;;;;;;;;;;;20.50;40.80;;;;;;5040338;28;19925;-61
2021/12/22 08:45:02;;;;;;;;;;;20.50;40.80;;;;;;5032255;28;20023;-59
2021/12/22 08:47:30;;;;;;;;;;;20.50;40.80;;;;;;5025386;28;19929;-58
2021/12/22 08:49:57;;;;;;;;;;;20.50;40.70;;;;;;5028033;28;19931;-58
2021/12/22 08:52:23;;;;;;;;;;;20.50;40.80;;;;;;5022618;28;19933;-59
2021/12/22 08:54:51;;;;;;;;;;;20.50;40.80;;;;;;5028835;28;19937;-58
2021/12/22 08:57:17;;;;;;;;;;;20.50;40.80;;;;;;5039093;28;19925;-57
2021/12/22 08:59:44;;;;;;;;;;;20.50;40.80;;;;;;5040115;28;19929;-56
2021/12/22 09:02:11;;;;;;;;;;;20.50;40.80;;;;;;5035142;28;19929;-57
2021/12/22 09:04:40;;;;;;;;;;;20.50;40.80;;;;;;5025220;28;19952;-58
2021/12/22 09:07:06;;;;;;;;;;;20.50;40.80;;;;;;5018500;28;19925;-54
2021/12/22 09:09:33;;;;;;;;;;;20.50;40.80;;;;;;5024590;28;20081;-60
2021/12/22 09:12:00;;;;;;;;;;;20.50;40.80;;;;;;5030341;28;19925;-61
2021/12/22 09:14:27;;;;;;;;;;;20.50;40.80;;;;;;5045447;28;19933;-62
2021/12/22 09:16:54;;;;;;;;;;;20.50;40.80;;;;;;5039536;28;19929;-54
2021/12/22 09:19:23;;;;;;;;;;;20.50;40.80;;;;;;5039364;28;20060;-55
2021/12/22 09:21:52;;;;;;;;;;;20.50;40.90;;;;;;5022015;28;19929;-53
2021/12/22 09:24:18;;;;;;;;;;;20.50;40.90;;;;;;5032307;28;19932;-57
2021/12/22 09:26:45;;;;;;;;;;;20.50;40.80;;;;;;5033519;28;20003;-50
2021/12/22 09:29:12;;;;;;;;;;;20.50;40.90;;;;;;5023238;28;20390;-57
2021/12/22 09:31:39;;;;;;;;;;;20.50;40.80;;;;;;5030773;28;20401;-57
2021/12/22 09:34:06;;;;;;;;;;;20.50;40.90;;;;;;5030108;28;19929;-59
2021/12/22 09:36:32;;;;;;;;;;;20.50;40.90;;;;;;5026828;28;20027;-57
2021/12/22 09:39:00;;;;;;;;;;;20.50;40.90;;;;;;5027255;28;19956;-64
2021/12/22 09:41:27;;;;;;;;;;;20.50;40.90;;;;;;5021031;28;20078;-56
2021/12/22 09:43:55;;;;;;;;;;;20.50;40.90;;;;;;5041719;28;19932;-57
2021/12/22 09:46:24;;;;;;;;;;;20.50;40.90;;;;;;5039408;28;19926;-58
2021/12/22 09:48:59;;;;;;;;;;;20.50;40.90;;;;;;5027037;28;19987;-57
2021/12/22 09:54:13;;;;;;;;;;;20.50;40.90;;;;;;5040794;28;19936;-60
2021/12/22 09:56:40;;;;;;;;;;;20.50;40.90;;;;;;5032815;28;20017;-59
2021/12/22 09:59:07;;;;;;;;;;;20.50;40.90;;;;;;5029194;28;19935;-57
2021/12/22 10:01:33;;;;;;;;;;;20.50;40.90;;;;;;5014473;28;19952;-59
2021/12/22 10:04:01;;;;;;;;;;;20.50;40.80;;;;;;5013670;28;20021;-55
2021/12/22 10:06:27;;;;;;;;;;;20.50;40.90;;;;;;5032415;28;19932;-60
2021/12/22 10:08:55;;;;;;;;;;;20.50;40.90;;;;;;5067073;28;19925;-58
2021/12/22 10:11:23;;;;;;;;;;;20.50;40.90;;;;;;5046413;28;20378;-58
2021/12/22 10:13:50;;;;;;;;;;;20.50;40.90;;;;;;5022712;28;19995;-58
2021/12/22 10:16:18;;;;;;;;;;;20.50;40.90;;;;;;5037716;28;19925;-55
2021/12/22 10:18:44;;;;;;;;;;;20.50;40.90;;;;;;5021882;28;20317;-59
2021/12/22 10:21:12;;;;;;;;;;;20.50;40.90;;;;;;5035488;28;20368;-56
2021/12/22 10:23:41;;;;;;;;;;;20.50;40.90;;;;;;5035207;28;20016;-61
2021/12/22 10:26:08;;;;;;;;;;;20.50;40.90;;;;;;5033886;28;19925;-57
2021/12/22 10:28:46;;;;;;;;;;;20.50;40.90;;;;;;5028754;28;19936;-59
2021/12/22 10:31:12;;;;;;;;;;;20.50;40.90;;;;;;5016599;28;20063;-61
2021/12/22 10:33:39;;;;;;;;;;;20.50;40.90;;;;;;5024698;28;19925;-53
2021/12/22 10:36:09;;;;;;;;;;;20.50;40.90;;;;;;5022864;28;19925;-56
2021/12/22 10:38:36;;;;;;;;;;;20.50;40.90;;;;;;5026713;28;19940;-57
2021/12/22 10:41:03;;;;;;;;;;;20.50;41.00;;;;;;5020341;28;20373;-60
2021/12/22 10:43:30;;;;;;;;;;;20.50;41.00;;;;;;5032348;28;19932;-57
2021/12/22 10:45:59;;;;;;;;;;;20.50;41.00;;;;;;5020465;28;19932;-62
2021/12/22 10:51:11;;;;;;;;;;;20.50;41.00;;;;;;5030636;28;19936;-60
2021/12/22 10:53:41;;;;;;;;;;;20.50;41.00;;;;;;5033133;28;19975;-63
2021/12/22 10:56:08;;;;;;;;;;;20.50;41.10;;;;;;5014408;28;20008;-58
2021/12/22 10:58:35;;;;;;;;;;;20.50;41.10;;;;;;5028160;28;20271;-56
2021/12/22 11:01:04;;;;;;;;;;;20.50;41.10;;;;;;5034253;28;20262;-60
2021/12/22 11:03:36;;;;;;;;;;;20.50;41.10;;;;;;5025637;28;20505;-60
2021/12/22 11:06:03;;;;;;;;;;;20.50;41.10;;;;;;5016573;28;19936;-57
2021/12/22 11:08:32;;;;;;;;;;;20.50;41.10;;;;;;5023193;28;20372;-61
2021/12/22 11:10:58;;;;;;;;;;;20.50;41.10;;;;;;5034926;28;19978;-60
2021/12/22 11:13:25;;;;;;;;;;;20.50;41.10;;;;;;5025852;28;19925;-58
2021/12/22 11:15:53;;;;;;;;;;;20.50;41.10;;;;;;5032698;28;19925;-60
2021/12/22 11:18:27;;;;;;;;;;;20.50;41.10;;;;;;5032507;28;19982;-62
2021/12/22 11:21:09;;;;;;;;;;;20.60;41.30;;;;;;5019289;28;20043;-62
2021/12/22 11:23:36;;;;;;;;;;;20.50;41.20;;;;;;5015283;28;19942;-60
2021/12/22 11:26:02;;;;;;;;;;;20.50;41.10;;;;;;5025302;28;19933;-57
2021/12/22 11:28:29;;;;;;;;;;;20.60;41.30;;;;;;5024852;28;20345;-57
2021/12/22 11:30:56;;;;;;;;;;;20.50;41.20;;;;;;5019930;28;19961;-64
2021/12/22 11:33:23;;;;;;;;;;;20.50;41.20;;;;;;5025349;28;19935;-59
2021/12/22 11:35:51;;;;;;;;;;;20.50;41.20;;;;;;5023301;28;19983;-59
2021/12/22 11:38:18;;;;;;;;;;;20.50;41.20;;;;;;5027709;28;20028;-59
2021/12/22 11:40:52;;;;;;;;;;;20.50;41.20;;;;;;5022083;28;20397;-63
2021/12/22 11:43:19;;;;;;;;;;;20.50;41.20;;;;;;5023464;28;19925;-62
2021/12/22 11:45:46;;;;;;;;;;;20.50;41.20;;;;;;5026047;28;19936;-56
2021/12/22 11:48:13;;;;;;;;;;;20.50;41.20;;;;;;5041845;28;19928;-61
2021/12/22 11:50:42;;;;;;;;;;;20.50;41.20;;;;;;5029730;28;20111;-64
2021/12/22 11:53:13;;;;;;;;;;;20.50;41.20;;;;;;5022278;28;20462;-57
2021/12/22 11:55:40;;;;;;;;;;;20.60;41.30;;;;;;5028003;28;20302;-57
2021/12/22 11:58:16;;;;;;;;;;;20.50;41.20;;;;;;5019320;28;19975;-60
2021/12/22 12:00:43;;;;;;;;;;;20.50;41.20;;;;;;5032170;28;19978;-57
2021/12/22 12:03:20;;;;;;;;;;;20.50;41.20;;;;;;5015615;28;20270;-59
2021/12/22 12:06:02;;;;;;;;;;;20.50;41.20;;;;;;5030859;28;19929;-60
2021/12/22 12:08:34;;;;;;;;;;;20.50;41.20;;;;;;5023492;28;19971;-60
2021/12/22 12:11:01;;;;;;;;;;;20.60;41.30;;;;;;5024689;28;19932;-60
2021/12/22 12:21:58;;;;;;;;;;;20.60;41.30;;;;;;5025555;28;19925;-61
2021/12/22 12:24:37;;;;;;;;;;;20.50;41.20;;;;;;5028976;28;19936;-58
2021/12/22 12:27:19;;;;;;;;;;;20.60;41.30;;;;;;5031849;28;20408;-58
2021/12/22 12:29:55;;;;;;;;;;;20.50;41.20;;;;;;5035991;28;19932;-58
2021/12/22 12:32:41;;;;;;;;;;;20.50;41.20;;;;;;5045146;28;19940;-60
2021/12/22 12:35:20;;;;;;;;;;;20.50;41.20;;;;;;5024004;28;19979;-60
2021/12/22 12:37:57;;;;;;;;;;;20.60;41.30;;;;;;5044982;28;20028;-60
2021/12/22 12:40:25;;;;;;;;;;;20.60;41.40;;;;;;5030534;28;20545;-57
2021/12/22 12:42:58;;;;;;;;;;;20.60;41.40;;;;;;5024378;28;19976;-64
2021/12/22 12:45:43;;;;;;;;;;;20.60;41.40;;;;;;5036008;28;19925;-63
2021/12/22 12:48:24;;;;;;;;;;;20.60;41.40;;;;;;5028191;28;19955;-59
2021/12/22 12:51:06;;;;;;;;;;;20.60;41.40;;;;;;5046072;28;20489;-58
2021/12/22 12:53:33;;;;;;;;;;;20.60;41.40;;;;;;5027924;28;19940;-56
2021/12/22 12:56:04;;;;;;;;;;;20.60;41.40;;;;;;5033236;28;19939;-57
2021/12/22 12:58:31;;;;;;;;;;;20.60;41.40;;;;;;5044419;28;19929;-60
2021/12/22 13:00:58;;;;;;;;;;;20.60;41.40;;;;;;5030421;28;19929;-56
2021/12/22 13:03:25;;;;;;;;;;;20.60;41.50;;;;;;5019318;28;19933;-60
2021/12/22 13:05:51;;;;;;;;;;;20.60;41.40;;;;;;5030758;28;20290;-60
2021/12/22 13:08:18;;;;;;;;;;;20.50;41.30;;;;;;5028039;28;19925;-58
2021/12/22 13:10:51;;;;;;;;;;;20.60;41.40;;;;;;5037385;28;20009;-60
2021/12/22 13:13:29;;;;;;;;;;;20.60;41.40;;;;;;5029995;28;19925;-59
2021/12/22 13:15:55;;;;;;;;;;;20.60;41.40;;;;;;5037356;28;19925;-58
2021/12/22 13:18:30;;;;;;;;;;;20.60;41.40;;;;;;5036664;28;19932;-57
2021/12/22 13:21:06;;;;;;;;;;;20.60;41.40;;;;;;5031731;28;19932;-60
2021/12/22 13:23:33;;;;;;;;;;;20.60;41.40;;;;;;5042530;28;19933;-60
2021/12/22 13:26:00;;;;;;;;;;;20.60;41.40;;;;;;5023287;28;19925;-59
2021/12/22 13:28:29;;;;;;;;;;;20.60;41.40;;;;;;5039158;28;20047;-59
2021/12/22 13:30:56;;;;;;;;;;;20.60;41.40;;;;;;5028349;28;20024;-62
2021/12/22 13:33:24;;;;;;;;;;;20.60;41.40;;;;;;5027404;28;20031;-61
2021/12/22 13:35:51;;;;;;;;;;;20.60;41.40;;;;;;5016765;28;19926;-60
2021/12/22 13:38:19;;;;;;;;;;;20.60;41.40;;;;;;5022696;28;19925;-64
2021/12/22 13:40:48;;;;;;;;;;;20.60;41.40;;;;;;5025252;28;19933;-60
2021/12/22 13:43:18;;;;;;;;;;;20.60;41.40;;;;;;5032959;28;19931;-57
2021/12/22 13:45:46;;;;;;;;;;;20.60;41.40;;;;;;5019725;28;20252;-62
2021/12/22 13:48:16;;;;;;;;;;;20.60;41.40;;;;;;5018688;28;19932;-63
2021/12/22 13:50:43;;;;;;;;;;;20.50;41.30;;;;;;5025906;28;20035;-60
2021/12/22 13:53:10;;;;;;;;;;;20.60;41.40;;;;;;5038338;28;19933;-62
2021/12/22 13:55:37;;;;;;;;;;;20.60;41.40;;;;;;5030198;28;19932;-65
2021/12/22 13:58:18;;;;;;;;;;;20.60;40.60;;;;;;5037585;28;19955;-58
2021/12/22 14:00:46;;;;;;;;;;;20.50;33.80;;;;;;5021690;28;19929;-58
2021/12/22 14:03:16;;;;;;;;;;;20.40;34.80;;;;;;5025261;28;19937;-63
2021/12/22 14:05:43;;;;;;;;;;;20.30;36.00;;;;;;5028911;28;20339;-60
2021/12/22 14:08:23;;;;;;;;;;;20.20;36.80;;;;;;5032260;28;20115;-56
2021/12/22 14:10:49;;;;;;;;;;;20.20;37.40;;;;;;5028497;28;19930;-58
2021/12/22 14:13:26;;;;;;;;;;;20.20;37.90;;;;;;5027497;28;20602;-59
2021/12/22 14:15:54;;;;;;;;;;;20.20;36.70;;;;;;5014349;28;20019;-60
2021/12/22 14:18:21;;;;;;;;;;;20.10;28.10;;;;;;5018562;28;19961;-59
2021/12/22 14:20:48;;;;;;;;;;;19.80;26.70;;;;;;5044743;28;19937;-58
2021/12/22 14:23:15;;;;;;;;;;;19.60;26.00;;;;;;5028679;28;19929;-59
2021/12/22 14:25:42;;;;;;;;;;;19.30;25.80;;;;;;5044472;28;20014;-60
2021/12/22 14:28:20;;;;;;;;;;;18.90;25.20;;;;;;5028103;28;20574;-58
2021/12/22 14:30:47;;;;;;;;;;;18.60;25.20;;;;;;5026340;28;19929;-61
2021/12/22 14:33:16;;;;;;;;;;;18.30;25.30;;;;;;5027346;28;19933;-60
2021/12/22 14:35:43;;;;;;;;;;;18.10;25.40;;;;;;5032791;28;19933;-60
2021/12/22 14:38:11;;;;;;;;;;;17.80;25.40;;;;;;5018389;28;20024;-59
2021/12/22 14:40:38;;;;;;;;;;;17.60;25.40;;;;;;5040097;28;20023;-60
2021/12/22 14:43:05;;;;;;;;;;;17.30;25.60;;;;;;5043727;28;19928;-60
2021/12/22 14:45:33;;;;;;;;;;;17.10;25.60;;;;;;5026827;28;19933;-58
2021/12/22 14:48:00;;;;;;;;;;;;;;;;;;5021801;28;20028;-58